createdAt,value
2018-09-29T00:00:44.265Z,3.6
2018-09-29T00:03:44.236Z,3.6
2018-09-29T00:06:44.104Z,3.6
2018-09-29T00:09:44.029Z,3.6
2018-09-29T00:12:44.136Z,3.6
2018-09-29T00:15:44.130Z,3.6
2018-09-29T00:18:44.123Z,3.6
2018-09-29T00:21:44.206Z,3.6
2018-09-29T00:24:44.380Z,3.6
2018-09-29T00:27:44.081Z,3.6
2018-09-29T00:30:44.170Z,3.6
2018-09-29T00:33:44.204Z,3.6
2018-09-29T00:36:44.051Z,3.6
2018-09-29T00:39:44.301Z,3.6
2018-09-29T00:42:44.147Z,3.6
2018-09-29T00:45:44.272Z,3.6
2018-09-29T00:48:44.298Z,3.6
2018-09-29T00:51:44.106Z,3.6
2018-09-29T00:54:44.181Z,3.6
2018-09-29T00:57:44.184Z,3.6
2018-09-29T01:00:44.427Z,3.4
2018-09-29T01:03:44.129Z,3.4
2018-09-29T01:06:44.217Z,3.4
2018-09-29T01:09:44.157Z,3.4
2018-09-29T01:12:43.964Z,3.4
2018-09-29T01:15:44.125Z,3.4
2018-09-29T01:18:44.526Z,3.4
2018-09-29T01:21:43.959Z,3.4
2018-09-29T01:24:44.073Z,3.4
2018-09-29T01:27:44.349Z,3.4
2018-09-29T01:30:44.059Z,3.4
2018-09-29T01:33:44.333Z,3.4
2018-09-29T01:36:44.371Z,3.4
2018-09-29T01:39:44.177Z,3.4
2018-09-29T01:42:44.107Z,3.4
2018-09-29T01:45:44.338Z,3.4
2018-09-29T01:48:44.311Z,3.4
2018-09-29T01:51:44.273Z,3.4
2018-09-29T01:54:44.022Z,3.4
2018-09-29T01:57:44.054Z,3.4
2018-09-29T02:00:44.562Z,3.2
2018-09-29T02:03:44.114Z,3.2
2018-09-29T02:06:44.255Z,3.2
2018-09-29T02:09:44.511Z,3.2
2018-09-29T02:12:44.141Z,3.2
2018-09-29T02:15:44.336Z,3.2
2018-09-29T02:18:44.342Z,3.2
2018-09-29T02:21:44.132Z,3.2
2018-09-29T02:24:44.163Z,3.2
2018-09-29T02:27:43.975Z,3.2
2018-09-29T02:30:44.011Z,3.2
2018-09-29T02:33:44.017Z,3.2
2018-09-29T02:36:44.112Z,3.2
2018-09-29T02:39:44.138Z,3.2
2018-09-29T02:42:44.047Z,3.2
2018-09-29T02:45:44.084Z,3.2
2018-09-29T02:48:44.054Z,3.2
2018-09-29T02:51:43.992Z,3.2
2018-09-29T02:54:43.969Z,3.2
2018-09-29T02:57:44.022Z,3.2
2018-09-29T03:00:44.127Z,3.1
2018-09-29T03:03:44.116Z,3.1
2018-09-29T03:06:44.240Z,3.1
2018-09-29T03:09:44.098Z,3.1
2018-09-29T03:12:44.035Z,3.1
2018-09-29T03:15:44.025Z,3.1
2018-09-29T03:18:44.263Z,3.1
2018-09-29T03:21:43.970Z,3.1
2018-09-29T03:24:43.984Z,3.1
2018-09-29T03:27:44.356Z,3.1
2018-09-29T03:30:44.128Z,3.1
2018-09-29T03:33:44.061Z,3.1
2018-09-29T03:36:44.027Z,3.1
2018-09-29T03:39:44.226Z,3.1
2018-09-29T03:42:44.115Z,3.1
2018-09-29T03:45:44.213Z,3.1
2018-09-29T03:48:44.064Z,3.1
2018-09-29T03:51:44.236Z,3.1
2018-09-29T03:54:44.136Z,3.1
2018-09-29T03:57:44.576Z,3.1
2018-09-29T04:00:44.042Z,2.9
2018-09-29T04:03:43.893Z,2.9
2018-09-29T04:06:44.138Z,2.9
2018-09-29T04:09:44.118Z,2.9
2018-09-29T04:12:44.166Z,2.9
2018-09-29T04:15:44.097Z,2.9
2018-09-29T04:18:44.031Z,2.9
2018-09-29T04:21:44.120Z,2.9
2018-09-29T04:24:44.213Z,2.9
2018-09-29T04:27:44.214Z,2.9
2018-09-29T04:30:44.216Z,2.9
2018-09-29T04:33:44.281Z,2.9
2018-09-29T04:36:44.067Z,2.9
2018-09-29T04:39:44.162Z,2.9
2018-09-29T04:42:44.349Z,2.9
2018-09-29T04:45:43.946Z,2.9
2018-09-29T04:48:44.258Z,2.9
2018-09-29T04:51:44.009Z,2.9
2018-09-29T04:54:43.999Z,2.9
2018-09-29T04:57:44.368Z,2.9
2018-09-29T05:00:44.183Z,2.8
2018-09-29T05:03:44.116Z,2.8
2018-09-29T05:06:43.934Z,2.8
2018-09-29T05:09:44.178Z,2.8
2018-09-29T05:12:43.981Z,2.8
2018-09-29T05:15:44.340Z,2.8
2018-09-29T05:18:43.938Z,2.8
2018-09-29T05:21:43.929Z,2.8
2018-09-29T05:24:44.115Z,2.8
2018-09-29T05:27:44.057Z,2.8
2018-09-29T05:30:45.030Z,2.8
2018-09-29T05:33:44.165Z,2.8
2018-09-29T05:36:44.251Z,2.8
2018-09-29T05:39:43.950Z,2.8
2018-09-29T05:42:43.889Z,2.8
2018-09-29T05:45:44.098Z,2.8
2018-09-29T05:48:43.947Z,2.8
2018-09-29T05:51:44.177Z,2.8
2018-09-29T05:54:43.928Z,2.8
2018-09-29T05:57:44.411Z,2.8
2018-09-29T06:00:45.755Z,2.7
2018-09-29T06:03:43.947Z,2.7
2018-09-29T06:06:43.930Z,2.7
2018-09-29T06:09:44.080Z,2.7
2018-09-29T06:12:43.999Z,2.7
2018-09-29T06:15:44.259Z,2.7
2018-09-29T06:18:44.319Z,2.7
2018-09-29T06:21:44.052Z,2.7
2018-09-29T06:24:43.885Z,2.7
2018-09-29T06:27:44.142Z,2.7
2018-09-29T06:30:44.131Z,2.7
2018-09-29T06:33:43.998Z,2.7
2018-09-29T06:36:45.264Z,2.7
2018-09-29T06:39:44.190Z,2.7
2018-09-29T06:42:44.205Z,2.7
2018-09-29T06:45:44.029Z,2.7
2018-09-29T06:48:44.070Z,2.7
2018-09-29T06:51:43.867Z,2.7
2018-09-29T06:54:44.199Z,2.7
2018-09-29T06:57:43.886Z,2.7
2018-09-29T07:00:43.983Z,2.6
2018-09-29T07:03:44.111Z,2.6
2018-09-29T07:06:44.035Z,2.6
2018-09-29T07:09:44.007Z,2.6
2018-09-29T07:12:44.473Z,2.6
2018-09-29T07:15:43.980Z,2.6
2018-09-29T07:18:43.972Z,2.6
2018-09-29T07:21:46.267Z,2.6
2018-09-29T07:24:44.189Z,2.6
2018-09-29T07:27:43.952Z,2.6
2018-09-29T07:30:44.064Z,2.6
2018-09-29T07:33:44.207Z,2.6
2018-09-29T07:36:43.924Z,2.6
2018-09-29T07:39:44.337Z,2.6
2018-09-29T07:42:43.925Z,2.6
2018-09-29T07:45:44.029Z,2.6
2018-09-29T07:48:44.414Z,2.6
2018-09-29T07:51:44.087Z,2.6
2018-09-29T07:54:45.412Z,2.6
2018-09-29T07:57:44.789Z,2.6
2018-09-29T08:00:43.910Z,2.5
2018-09-29T08:03:44.176Z,2.5
2018-09-29T08:06:43.873Z,2.5
2018-09-29T08:09:44.269Z,2.5
2018-09-29T08:12:43.935Z,2.5
2018-09-29T08:15:43.950Z,2.5
2018-09-29T08:18:44.232Z,2.5
2018-09-29T08:21:43.998Z,2.5
2018-09-29T08:24:43.950Z,2.5
2018-09-29T08:27:44.449Z,2.5
2018-09-29T08:30:44.043Z,2.5
2018-09-29T08:33:44.162Z,2.5
2018-09-29T08:36:44.076Z,2.5
2018-09-29T08:39:44.024Z,2.5
2018-09-29T08:42:44.179Z,2.5
2018-09-29T08:45:44.064Z,2.5
2018-09-29T08:48:43.863Z,2.5
2018-09-29T08:51:43.899Z,2.5
2018-09-29T08:54:43.982Z,2.5
2018-09-29T08:57:43.957Z,2.5
2018-09-29T09:00:43.997Z,2.7
2018-09-29T09:03:43.927Z,2.7
2018-09-29T09:06:44.138Z,2.7
2018-09-29T09:09:44.169Z,2.7
2018-09-29T09:12:44.069Z,2.7
2018-09-29T09:15:44.225Z,2.7
2018-09-29T09:18:43.871Z,2.7
2018-09-29T09:21:44.155Z,2.7
2018-09-29T09:24:44.021Z,2.7
2018-09-29T09:27:44.324Z,2.7
2018-09-29T09:30:43.986Z,2.7
2018-09-29T09:33:44.001Z,2.7
2018-09-29T09:36:43.846Z,2.7
2018-09-29T09:39:43.920Z,2.7
2018-09-29T09:42:44.115Z,2.7
2018-09-29T09:45:43.881Z,2.7
2018-09-29T09:51:44.187Z,2.7
2018-09-29T09:57:44.025Z,2.7
2018-09-29T10:00:44.034Z,2.7
2018-09-29T10:03:44.000Z,2.7
2018-09-29T10:06:43.868Z,2.7
2018-09-29T10:12:43.994Z,2.7
2018-09-29T10:15:44.088Z,2.7
2018-09-29T10:18:43.903Z,2.7
2018-09-29T10:21:44.286Z,2.7
2018-09-29T10:24:44.130Z,2.7
2018-09-29T10:30:44.472Z,2.7
2018-09-29T10:33:44.021Z,2.7
2018-09-29T10:36:43.938Z,2.7
2018-09-29T10:39:44.090Z,2.7
2018-09-29T10:42:43.901Z,2.7
2018-09-29T10:51:43.925Z,2.7
2018-09-29T10:54:43.902Z,2.7
2018-09-29T10:57:44.020Z,2.7
2018-09-29T11:00:43.877Z,2.7
2018-09-29T11:06:44.033Z,2.7
2018-09-29T11:09:44.321Z,2.7
2018-09-29T11:12:43.952Z,2.7
2018-09-29T11:15:43.948Z,2.7
2018-09-29T11:21:43.881Z,2.7
2018-09-29T11:27:45.917Z,2.7
2018-09-29T11:30:43.993Z,2.7
2018-09-29T11:33:43.941Z,2.7
2018-09-29T11:36:44.082Z,2.7
2018-09-29T11:39:43.972Z,2.7
2018-09-29T11:45:44.019Z,2.7
2018-09-29T11:48:44.067Z,2.7
2018-09-29T11:51:43.908Z,2.7
2018-09-29T11:54:44.020Z,2.7
2018-09-29T12:00:44.161Z,2.7
2018-09-29T12:06:43.968Z,2.7
2018-09-29T12:09:43.919Z,2.7
2018-09-29T12:15:43.831Z,2.7
2018-09-29T12:18:43.922Z,2.7
2018-09-29T12:21:43.871Z,2.7
2018-09-29T13:03:01.054Z,3.5
2018-09-29T13:06:01.087Z,3.5
2018-09-29T13:09:01.420Z,3.5
2018-09-29T13:12:01.173Z,3.5
2018-09-29T13:15:00.958Z,3.5
2018-09-29T13:18:00.876Z,3.5
2018-09-29T13:21:01.074Z,3.5
2018-09-29T13:24:01.216Z,3.5
2018-09-29T13:27:01.212Z,3.5
2018-09-29T13:30:01.423Z,3.5
2018-09-29T13:33:01.060Z,3.5
2018-09-29T13:36:00.878Z,3.5
2018-09-29T13:39:00.967Z,3.5
2018-09-29T13:42:01.045Z,3.5
2018-09-29T13:45:01.192Z,3.5
2018-09-29T13:48:00.961Z,3.5
2018-09-29T13:51:00.905Z,3.5
2018-09-29T13:54:00.901Z,3.5
2018-09-29T13:57:01.033Z,3.5
2018-09-29T14:00:00.824Z,3.5
2018-09-29T14:03:00.924Z,3.6
2018-09-29T14:06:00.992Z,3.6
2018-09-29T14:09:00.771Z,3.6
2018-09-29T14:12:01.007Z,3.6
2018-09-29T14:15:00.890Z,3.6
2018-09-29T14:18:00.802Z,3.6
2018-09-29T14:21:01.021Z,3.6
2018-09-29T14:24:01.329Z,3.6
2018-09-29T14:27:01.009Z,3.6
2018-09-29T14:30:02.212Z,3.6
2018-09-29T14:33:01.307Z,3.6
2018-09-29T14:36:00.860Z,3.6
2018-09-29T14:39:00.700Z,3.6
2018-09-29T14:42:03.448Z,3.6
2018-09-29T14:45:01.186Z,3.6
2018-09-29T14:48:00.852Z,3.6
2018-09-29T14:51:01.312Z,3.6
2018-09-29T14:54:01.071Z,3.6
2018-09-29T14:57:00.921Z,3.6
2018-09-29T15:00:01.019Z,3.6
2018-09-29T15:03:00.766Z,3.6
2018-09-29T15:06:00.895Z,3.6
2018-09-29T15:09:00.972Z,3.6
2018-09-29T15:12:00.805Z,3.6
2018-09-29T15:15:01.251Z,3.6
2018-09-29T15:18:01.053Z,3.6
2018-09-29T15:21:00.817Z,3.6
2018-09-29T15:24:00.669Z,3.6
2018-09-29T15:27:00.871Z,3.6
2018-09-29T15:30:01.281Z,3.6
2018-09-29T15:33:01.022Z,3.6
2018-09-29T15:36:01.386Z,3.6
2018-09-29T15:39:00.884Z,3.6
2018-09-29T15:42:01.117Z,3.6
2018-09-29T15:45:02.714Z,3.6
2018-09-29T15:48:00.977Z,3.6
2018-09-29T15:51:00.884Z,3.6
2018-09-29T15:54:00.855Z,3.6
2018-09-29T15:56:01.147Z,3.6
2018-09-29T17:00:34.997Z,4.4
2018-09-29T17:03:26.156Z,4.4
2018-09-29T17:06:24.951Z,4.4
2018-09-29T17:09:24.995Z,4.4
2018-09-29T17:12:24.843Z,4.4
2018-09-29T17:15:25.133Z,4.4
2018-09-29T17:18:24.831Z,4.4
2018-09-29T17:21:24.933Z,4.4
2018-09-29T17:24:24.726Z,4.4
2018-09-29T17:27:25.136Z,4.4
2018-09-29T17:30:24.865Z,4.4
2018-09-29T17:33:24.970Z,4.4
2018-09-29T17:36:24.991Z,4.4
2018-09-29T17:39:25.543Z,4.4
2018-09-29T17:42:24.952Z,4.4
2018-09-29T17:45:26.205Z,4.4
2018-09-29T17:48:25.007Z,4.4
2018-09-29T17:51:25.703Z,4.4
2018-09-29T17:54:24.783Z,4.4
2018-09-29T17:57:24.934Z,4.4
2018-09-29T18:00:24.876Z,4.4
2018-09-29T18:03:25.029Z,4.4
2018-09-29T18:06:24.893Z,4.4
2018-09-29T18:09:25.010Z,4.4
2018-09-29T18:12:24.984Z,4.4
2018-09-29T18:15:24.911Z,4.4
2018-09-29T18:18:24.829Z,4.4
2018-09-29T18:21:26.176Z,4.4
2018-09-29T18:24:25.084Z,4.4
2018-09-29T18:27:24.742Z,4.4
2018-09-29T18:30:24.911Z,4.4
2018-09-29T18:33:25.058Z,4.4
2018-09-29T18:36:24.901Z,4.4
2018-09-29T18:39:25.143Z,4.4
2018-09-29T18:42:25.086Z,4.4
2018-09-29T18:45:25.053Z,4.4
2018-09-29T18:48:24.911Z,4.4
2018-09-29T18:51:25.254Z,4.4
2018-09-29T18:54:25.242Z,4.4
2018-09-29T18:57:25.941Z,4.4
2018-09-29T19:00:24.918Z,4.2
2018-09-29T19:03:25.244Z,4.2
2018-09-29T19:06:25.299Z,4.2
2018-09-29T19:09:25.195Z,4.2
2018-09-29T19:12:25.305Z,4.2
2018-09-29T19:15:24.930Z,4.2
2018-09-29T19:18:24.860Z,4.2
2018-09-29T19:21:25.165Z,4.2
2018-09-29T19:24:24.778Z,4.2
2018-09-29T19:27:24.915Z,4.2
2018-09-29T19:30:24.948Z,4.2
2018-09-29T19:33:24.860Z,4.2
2018-09-29T20:00:59.008Z,6
2018-09-29T20:03:58.810Z,6
2018-09-29T20:06:59.154Z,6
2018-09-29T20:09:59.672Z,6
2018-09-29T20:12:59.277Z,6
2018-09-29T20:15:59.325Z,6
2018-09-29T20:18:58.962Z,6
2018-09-29T20:21:58.852Z,6
2018-09-29T20:24:59.071Z,6
2018-09-29T20:27:59.294Z,6
2018-09-29T20:30:58.958Z,6
2018-09-29T20:33:59.098Z,6
2018-09-29T20:36:59.151Z,6
2018-09-29T20:39:58.913Z,6
2018-09-29T20:42:58.898Z,6
2018-09-29T20:45:59.185Z,6
2018-09-29T20:48:59.154Z,6
2018-09-29T20:51:59.020Z,6
2018-09-29T20:54:58.945Z,6
2018-09-29T20:57:59.083Z,6
2018-09-29T21:00:59.000Z,5.4
2018-09-29T21:03:59.042Z,5.4
2018-09-29T21:06:58.949Z,5.4
2018-09-29T21:09:58.805Z,5.4
2018-09-29T21:13:01.046Z,5.4
2018-09-29T21:15:59.208Z,5.4
2018-09-29T21:18:58.746Z,5.4
2018-09-29T21:21:59.013Z,5.4
2018-09-29T21:24:59.109Z,5.4
2018-09-29T21:27:58.871Z,5.4
2018-09-29T21:30:58.964Z,5.4
2018-09-29T21:33:59.026Z,5.4
2018-09-29T21:36:58.998Z,5.4
2018-09-29T21:39:58.790Z,5.4
2018-09-29T21:42:59.310Z,5.4
2018-09-29T21:45:59.081Z,5.4
2018-09-29T21:48:58.997Z,5.4
2018-09-29T21:51:59.197Z,5.4
2018-09-29T21:54:58.844Z,5.4
2018-09-29T21:57:59.300Z,5.4
2018-09-29T22:00:59.032Z,4.8
2018-09-29T22:03:58.945Z,4.8
2018-09-29T22:06:58.754Z,4.8
2018-09-29T22:09:59.036Z,4.8
2018-09-29T22:12:59.295Z,4.8
2018-09-29T22:15:58.855Z,4.8
2018-09-29T22:18:58.963Z,4.8
2018-09-29T22:21:58.809Z,4.8
2018-09-29T22:24:59.033Z,4.8
2018-09-29T22:27:58.749Z,4.8
2018-09-29T22:30:59.159Z,4.8
2018-09-29T22:33:59.008Z,4.8
2018-09-29T22:36:58.970Z,4.8
2018-09-29T22:39:59.634Z,4.8
2018-09-29T22:42:58.918Z,4.8
2018-09-29T22:45:58.775Z,4.8
2018-09-29T22:48:58.793Z,4.8
2018-09-29T22:51:58.736Z,4.8
2018-09-29T22:54:58.939Z,4.8
2018-09-29T22:57:58.818Z,4.8
2018-09-29T23:00:58.977Z,4.3
2018-09-29T23:03:58.924Z,4.3
2018-09-29T23:06:58.830Z,4.3
2018-09-29T23:09:58.805Z,4.3
2018-09-29T23:12:59.272Z,4.3
2018-09-29T23:15:59.080Z,4.3
2018-09-29T23:19:00.043Z,4.3
2018-09-29T23:21:59.012Z,4.3
2018-09-29T23:24:58.712Z,4.3
2018-09-29T23:27:58.822Z,4.3
2018-09-29T23:30:58.933Z,4.3
2018-09-29T23:33:59.058Z,4.3
2018-09-29T23:36:59.116Z,4.3
2018-09-29T23:39:58.988Z,4.3
2018-09-29T23:42:58.908Z,4.3
2018-09-29T23:45:58.852Z,4.3
2018-09-29T23:48:59.093Z,4.3
2018-09-29T23:51:58.793Z,4.3
2018-09-29T23:54:58.857Z,4.3
2018-09-29T23:57:58.734Z,4.3
